Time;durP1;ratioP1;P1;durP2;ratioP2;P2;SDS_P1;SDS_P2;PMS_P1;PMS_P2;Temp;Humidity;BMP_temperature;BMP_pressure;BME280_temperature;BME280_humidity;BME280_pressure;Samples;Min_cycle;Max_cycle;Signal;HPM_P1;HPM_P2
2022/09/17 00:02:26;;;;;;;0.98;0.30;;;16.00;61.00;;;;;;2331139;53;20921;-75
2022/09/17 00:04:53;;;;;;;0.20;0.20;;;16.00;60.70;;;;;;2330729;53;21993;-74
2022/09/17 00:07:19;;;;;;;0.68;0.32;;;15.90;60.80;;;;;;2334261;53;20944;-74
2022/09/17 00:09:45;;;;;;;0.75;0.30;;;15.90;60.80;;;;;;2565293;52;20996;-75
2022/09/17 00:12:36;;;;;;;0.65;0.30;;;15.80;60.70;;;;;;2422611;52;21003;-75
2022/09/17 00:15:03;;;;;;;2.62;0.30;;;15.90;60.30;;;;;;2331330;53;20956;-74
2022/09/17 00:17:29;;;;;;;0.30;0.20;;;15.80;60.50;;;;;;2380789;52;21093;-75
2022/09/17 00:23:41;;;;;;;1.15;0.30;;;15.70;60.10;;;;;;2330641;53;20980;-75
2022/09/17 00:26:08;;;;;;;0.68;0.30;;;15.70;60.10;;;;;;2367611;52;20936;-75
2022/09/17 00:28:34;;;;;;;1.35;0.30;;;15.60;60.20;;;;;;2331499;53;21056;-74
2022/09/17 00:31:06;;;;;;;0.57;0.30;;;15.60;60.30;;;;;;2352980;53;20917;-74
2022/09/17 00:33:32;;;;;;;1.27;0.47;;;15.60;60.20;;;;;;2334577;53;21033;-75
2022/09/17 00:35:59;;;;;;;1.02;0.32;;;15.60;60.30;;;;;;2333549;53;21107;-74
2022/09/17 00:38:31;;;;;;;0.30;0.20;;;15.60;60.40;;;;;;2352563;53;21297;-72
2022/09/17 00:44:49;;;;;;;0.57;0.30;;;15.50;60.00;;;;;;2331037;53;21076;-75
2022/09/17 00:47:30;;;;;;;1.27;0.30;;;15.50;60.20;;;;;;2336729;53;20949;-75
2022/09/17 00:50:07;;;;;;;1.90;0.30;;;15.50;60.30;;;;;;2501725;52;20980;-74
2022/09/17 00:52:48;;;;;;;0.77;0.25;;;15.40;60.20;;;;;;2334644;53;20953;-75
2022/09/17 00:55:23;;;;;;;0.60;0.20;;;15.50;60.30;;;;;;2383233;52;21966;-74
2022/09/17 00:57:55;;;;;;;0.62;0.25;;;15.40;60.20;;;;;;2338940;53;21335;-75
2022/09/17 01:00:21;;;;;;;0.98;0.30;;;15.40;60.30;;;;;;2331534;53;20983;-75
2022/09/17 01:02:48;;;;;;;1.15;0.30;;;15.40;60.40;;;;;;2330893;53;20969;-75
2022/09/17 01:05:14;;;;;;;0.98;0.30;;;15.40;60.40;;;;;;2428759;52;20921;-74
2022/09/17 01:14:13;;;;;;;1.75;0.30;;;15.40;60.30;;;;;;2331246;53;21007;-74
2022/09/17 01:19:47;;;;;;;0.88;0.20;;;15.30;60.40;;;;;;2331618;53;21456;-75
2022/09/17 01:22:42;;;;;;;0.55;0.20;;;15.40;60.50;;;;;;2337714;53;20961;-74
2022/09/17 01:33:36;;;;;;;0.50;0.20;;;15.40;60.60;;;;;;2576084;52;20936;-75
2022/09/17 01:43:05;;;;;;;0.30;0.13;;;15.40;60.60;;;;;;2346347;52;20996;-75
2022/09/17 01:45:42;;;;;;;1.00;0.17;;;15.40;60.70;;;;;;2331225;53;20973;-74
2022/09/17 01:48:17;;;;;;;0.37;0.15;;;15.30;60.70;;;;;;2483556;52;20917;-75
2022/09/17 01:52:35;;;;;;;0.32;0.10;;;15.30;60.80;;;;;;2331674;53;20957;-75
2022/09/17 01:55:05;;;;;;;2.03;0.68;;;15.30;60.70;;;;;;2333201;53;20992;-74
2022/09/17 01:57:37;;;;;;;0.40;0.20;;;15.30;60.90;;;;;;2337459;53;21055;-75
2022/09/17 02:00:08;;;;;;;0.93;0.35;;;15.30;61.00;;;;;;2396441;52;22108;-74
2022/09/17 02:02:40;;;;;;;0.37;0.15;;;15.30;60.90;;;;;;2387381;52;20976;-75
2022/09/17 02:05:15;;;;;;;0.77;0.30;;;15.30;61.00;;;;;;2452951;52;21038;-74
2022/09/17 02:08:20;;;;;;;1.48;0.40;;;15.30;61.20;;;;;;2339712;53;20936;-75
2022/09/17 02:11:09;;;;;;;0.60;0.20;;;15.30;61.20;;;;;;2330907;53;21123;-75
2022/09/17 02:13:53;;;;;;;0.73;0.32;;;15.30;61.80;;;;;;2330846;53;21007;-74
2022/09/17 02:16:23;;;;;;;0.82;0.40;;;15.30;61.20;;;;;;2425241;52;21075;-74
2022/09/17 02:19:23;;;;;;;3.10;0.30;;;15.30;61.20;;;;;;2335373;53;21881;-74
2022/09/17 02:31:12;;;;;;;1.52;0.30;;;15.30;61.10;;;;;;2331015;53;22105;-74
2022/09/17 02:33:56;;;;;;;0.70;0.20;;;15.30;61.00;;;;;;2358120;52;20956;-75
2022/09/17 02:36:23;;;;;;;2.33;0.37;;;15.30;61.40;;;;;;2332504;52;20976;-74
2022/09/17 02:38:56;;;;;;;0.65;0.20;;;15.30;61.50;;;;;;2330721;53;20937;-75
2022/09/17 02:41:24;;;;;;;0.57;0.22;;;15.30;61.30;;;;;;2386176;52;21059;-74
2022/09/17 02:43:59;;;;;;;1.52;0.20;;;15.20;61.20;;;;;;2434880;52;20916;-74
2022/09/17 02:46:42;;;;;;;0.85;0.20;;;15.20;61.30;;;;;;2421637;52;20960;-75
2022/09/17 02:49:24;;;;;;;1.60;0.50;;;15.20;61.30;;;;;;2330403;53;20937;-75
2022/09/17 02:52:17;;;;;;;1.30;0.50;;;15.20;61.50;;;;;;2532426;52;20940;-74
2022/09/17 02:55:01;;;;;;;1.67;0.50;;;15.20;61.60;;;;;;2404865;52;21980;-74
2022/09/17 03:00:57;;;;;;;0.90;0.30;;;15.20;61.50;;;;;;2331834;53;20933;-75
2022/09/17 03:03:35;;;;;;;0.80;0.30;;;15.20;61.50;;;;;;2438742;52;22046;-75
2022/09/17 03:06:03;;;;;;;1.83;0.20;;;15.20;61.50;;;;;;2385116;52;21088;-74
2022/09/17 03:08:39;;;;;;;0.43;0.22;;;15.20;61.60;;;;;;2334020;53;20983;-75
2022/09/17 03:11:07;;;;;;;0.52;0.30;;;15.20;61.60;;;;;;2363888;52;21054;-75
2022/09/17 03:13:35;;;;;;;0.50;0.20;;;15.20;61.70;;;;;;2413015;52;20945;-75
2022/09/17 03:16:02;;;;;;;0.62;0.30;;;15.20;61.70;;;;;;2411917;52;20990;-74
2022/09/17 03:18:28;;;;;;;0.62;0.30;;;15.20;61.70;;;;;;2334336;53;20948;-74
2022/09/17 03:20:55;;;;;;;0.98;0.30;;;15.20;61.70;;;;;;2329535;53;21040;-74
2022/09/17 03:23:21;;;;;;;1.37;0.30;;;15.20;61.80;;;;;;2332083;53;22161;-75
2022/09/17 03:25:48;;;;;;;1.42;0.32;;;15.20;61.80;;;;;;2330760;53;20976;-75
2022/09/17 03:28:17;;;;;;;0.82;0.37;;;15.20;61.90;;;;;;2354130;52;20987;-75
2022/09/17 03:30:45;;;;;;;0.30;0.20;;;15.30;62.00;;;;;;2574236;52;20916;-74
2022/09/17 03:33:14;;;;;;;2.58;0.40;;;15.20;61.90;;;;;;2354483;53;21044;-74
2022/09/17 03:35:43;;;;;;;2.42;0.40;;;15.30;62.00;;;;;;2331159;53;21640;-74
2022/09/17 03:38:11;;;;;;;0.93;0.32;;;15.30;62.00;;;;;;2334084;53;20929;-74
2022/09/17 03:40:37;;;;;;;1.40;0.30;;;15.30;62.10;;;;;;2331014;53;21064;-74
2022/09/17 03:43:04;;;;;;;1.17;0.40;;;15.30;62.00;;;;;;2330758;53;21384;-74
2022/09/17 03:45:31;;;;;;;0.77;0.28;;;15.30;62.00;;;;;;2372620;52;21017;-75
2022/09/17 03:48:00;;;;;;;2.35;0.32;;;15.30;62.00;;;;;;2342453;52;22443;-74
2022/09/17 03:50:27;;;;;;;2.37;0.40;;;15.30;62.10;;;;;;2333277;52;20965;-75
2022/09/17 03:52:53;;;;;;;1.40;0.40;;;15.30;62.00;;;;;;2335285;53;21091;-75
2022/09/17 03:55:19;;;;;;;0.65;0.20;;;15.30;62.00;;;;;;2476792;52;21060;-75
2022/09/17 03:57:46;;;;;;;1.23;0.30;;;15.30;62.00;;;;;;2410144;52;21734;-75
2022/09/17 04:00:16;;;;;;;1.60;0.50;;;15.30;61.90;;;;;;2331343;53;21403;-75
2022/09/17 04:02:42;;;;;;;1.27;0.40;;;15.30;61.80;;;;;;2333462;53;20948;-74
2022/09/17 04:05:09;;;;;;;1.15;0.40;;;15.30;61.80;;;;;;2331469;53;20964;-75
2022/09/17 04:07:35;;;;;;;1.77;0.40;;;15.30;61.90;;;;;;2330660;53;20925;-75
2022/09/17 04:10:03;;;;;;;2.03;0.35;;;15.20;61.90;;;;;;2330650;53;21004;-74
2022/09/17 04:12:30;;;;;;;1.92;0.40;;;15.30;62.10;;;;;;2330753;53;20976;-74
2022/09/17 04:14:56;;;;;;;1.73;0.40;;;15.20;61.90;;;;;;2348930;52;21024;-75
2022/09/17 04:17:23;;;;;;;1.65;0.47;;;15.20;61.90;;;;;;2330531;53;21000;-75
2022/09/17 04:20:42;;;;;;;1.45;0.30;;;15.30;61.90;;;;;;2330733;53;21965;-75
2022/09/17 04:23:10;;;;;;;1.12;0.40;;;15.30;62.10;;;;;;2333114;53;20981;-75
2022/09/17 04:25:37;;;;;;;1.80;0.40;;;15.20;62.00;;;;;;2331399;53;20952;-75
2022/09/17 04:28:03;;;;;;;1.10;0.40;;;15.20;62.10;;;;;;2332947;53;21553;-74
2022/09/17 04:33:58;;;;;;;1.05;0.50;;;15.20;62.00;;;;;;2330050;53;20925;-75
2022/09/17 04:36:25;;;;;;;1.80;0.60;;;15.20;62.10;;;;;;2330360;53;21004;-74
2022/09/17 04:38:59;;;;;;;1.08;0.40;;;15.20;62.20;;;;;;2391192;52;20941;-74
2022/09/17 04:41:25;;;;;;;0.30;0.30;;;15.30;62.30;;;;;;2406205;52;20940;-75
2022/09/17 04:43:51;;;;;;;1.05;0.40;;;15.20;62.20;;;;;;2413359;52;20932;-74
2022/09/17 04:46:18;;;;;;;0.93;0.40;;;15.30;62.30;;;;;;2352861;53;22035;-75
2022/09/17 04:55:54;;;;;;;0.47;0.30;;;15.30;62.20;;;;;;2330970;53;22096;-74
2022/09/17 04:58:23;;;;;;;1.10;0.40;;;15.30;62.10;;;;;;2331537;53;20996;-75
2022/09/17 05:00:49;;;;;;;0.37;0.30;;;15.30;62.30;;;;;;2332048;53;21049;-75
2022/09/17 05:03:16;;;;;;;2.65;0.40;;;15.30;62.40;;;;;;2331009;53;20993;-76
2022/09/17 05:05:42;;;;;;;1.12;0.40;;;15.30;62.30;;;;;;2384852;52;20984;-75
2022/09/17 05:08:08;;;;;;;0.65;0.30;;;15.30;62.40;;;;;;2349642;52;21974;-75
2022/09/17 05:10:35;;;;;;;1.87;0.50;;;15.30;62.30;;;;;;2376794;52;20900;-75
2022/09/17 05:13:19;;;;;;;0.93;0.40;;;15.30;62.30;;;;;;2332719;53;21000;-75
2022/09/17 05:15:45;;;;;;;2.35;0.45;;;15.30;62.10;;;;;;2366765;52;20976;-75
2022/09/17 05:18:12;;;;;;;1.02;0.40;;;15.30;62.20;;;;;;2330981;53;21756;-75
2022/09/17 05:20:38;;;;;;;1.50;0.45;;;15.30;62.20;;;;;;2570375;52;21089;-75
2022/09/17 05:23:04;;;;;;;1.33;0.37;;;15.30;62.40;;;;;;2350385;52;20948;-75
2022/09/17 05:25:33;;;;;;;1.27;0.50;;;15.30;62.40;;;;;;2359965;53;20996;-75
2022/09/17 05:28:00;;;;;;;2.90;0.57;;;15.30;62.50;;;;;;2333300;53;20947;-74
2022/09/17 05:30:26;;;;;;;2.83;0.82;;;15.30;62.50;;;;;;2330792;53;21490;-75
2022/09/17 05:33:03;;;;;;;2.53;0.50;;;15.30;62.60;;;;;;2330997;53;21011;-75
2022/09/17 05:36:21;;;;;;;2.42;0.50;;;15.30;62.60;;;;;;2332777;53;20935;-75
2022/09/17 05:38:47;;;;;;;1.05;0.40;;;15.30;62.70;;;;;;2332970;53;20932;-75
2022/09/17 05:41:13;;;;;;;1.55;0.50;;;15.30;62.60;;;;;;2382339;52;20925;-75
2022/09/17 05:43:42;;;;;;;0.88;0.47;;;15.40;62.70;;;;;;2351517;52;20940;-75
2022/09/17 05:46:08;;;;;;;2.12;0.70;;;15.30;62.50;;;;;;2331088;53;20932;-75
2022/09/17 05:48:55;;;;;;;3.42;1.10;;;15.20;62.50;;;;;;2344331;53;20925;-75
2022/09/17 05:51:21;;;;;;;3.05;0.80;;;15.30;62.70;;;;;;2480394;53;21052;-75
2022/09/17 05:53:48;;;;;;;3.15;1.00;;;15.30;62.60;;;;;;2429581;52;21012;-75
2022/09/17 05:56:14;;;;;;;3.85;1.10;;;15.30;62.50;;;;;;2399723;52;20927;-75
2022/09/17 05:58:40;;;;;;;2.37;0.73;;;15.30;62.40;;;;;;2341155;53;20936;-75
2022/09/17 06:01:07;;;;;;;1.30;0.50;;;15.30;62.20;;;;;;2385303;52;21946;-75
2022/09/17 06:03:33;;;;;;;0.82;0.40;;;15.30;62.00;;;;;;2331202;53;20956;-75
2022/09/17 06:06:00;;;;;;;1.35;0.50;;;15.30;61.90;;;;;;2334239;53;20945;-75
2022/09/17 06:08:27;;;;;;;1.67;0.70;;;15.30;61.90;;;;;;2332863;53;20964;-74
2022/09/17 06:10:53;;;;;;;2.60;0.93;;;15.30;62.10;;;;;;2330728;53;20988;-75
2022/09/17 06:13:22;;;;;;;2.47;0.70;;;15.30;62.20;;;;;;2334030;53;21331;-74
2022/09/17 06:15:50;;;;;;;1.80;0.60;;;15.30;62.20;;;;;;2334318;52;21009;-75
2022/09/17 06:18:16;;;;;;;2.22;0.60;;;15.30;62.20;;;;;;2354060;52;20973;-75
2022/09/17 06:20:57;;;;;;;1.20;0.45;;;15.30;62.30;;;;;;2370171;52;20952;-77
2022/09/17 06:23:24;;;;;;;1.12;0.40;;;15.30;62.30;;;;;;2373833;52;20976;-75
2022/09/17 06:26:30;;;;;;;1.62;0.70;;;15.30;62.30;;;;;;2346962;53;20993;-74
2022/09/17 06:28:58;;;;;;;1.95;0.60;;;15.30;62.10;;;;;;2383750;53;21147;-74
2022/09/17 06:31:43;;;;;;;1.50;0.70;;;15.30;62.10;;;;;;2399491;52;21428;-75
2022/09/17 06:34:10;;;;;;;1.75;0.60;;;15.30;61.70;;;;;;2334328;53;22015;-75
2022/09/17 06:36:37;;;;;;;1.87;0.50;;;15.30;61.70;;;;;;2369041;52;20924;-75
2022/09/17 06:39:03;;;;;;;2.30;0.52;;;15.30;61.50;;;;;;2332195;53;20972;-75
2022/09/17 06:41:30;;;;;;;2.60;0.52;;;15.30;61.40;;;;;;2330697;54;21028;-74
2022/09/17 06:43:56;;;;;;;2.22;0.47;;;15.20;61.20;;;;;;2387202;52;20963;-75
2022/09/17 06:46:23;;;;;;;2.70;0.50;;;15.20;61.20;;;;;;2333237;53;20921;-75
2022/09/17 06:48:49;;;;;;;1.52;0.50;;;15.20;61.20;;;;;;2353048;52;20988;-75
2022/09/17 06:52:03;;;;;;;1.05;0.43;;;15.20;61.10;;;;;;2337934;53;21208;-76
2022/09/17 06:54:35;;;;;;;1.65;0.50;;;15.20;60.90;;;;;;2343709;52;22251;-74
2022/09/17 06:57:03;;;;;;;1.58;0.50;;;15.20;61.00;;;;;;2331420;53;20988;-75
2022/09/17 06:59:29;;;;;;;1.17;0.45;;;15.10;60.90;;;;;;2337181;53;21372;-75
2022/09/17 07:01:56;;;;;;;2.20;0.50;;;15.10;60.90;;;;;;2330535;53;21060;-75
2022/09/17 07:04:23;;;;;;;2.37;0.60;;;15.10;60.90;;;;;;2331214;53;21466;-75
2022/09/17 07:06:55;;;;;;;;;;;15.00;60.80;;;;;;2335708;53;20947;-75
2022/09/17 07:09:22;;;;;;;0.88;0.40;;;15.10;60.60;;;;;;2330645;53;20374;-75
2022/09/17 07:11:48;;;;;;;2.83;0.40;;;15.00;60.70;;;;;;2390747;52;21357;-75
2022/09/17 07:14:15;;;;;;;4.82;0.73;;;15.00;60.70;;;;;;2330686;53;21304;-75
2022/09/17 07:16:41;;;;;;;2.70;0.50;;;15.00;60.60;;;;;;2388247;52;21243;-75
2022/09/17 07:19:27;;;;;;;2.12;0.52;;;15.00;60.60;;;;;;2380344;52;20996;-75
2022/09/17 07:21:53;;;;;;;1.80;0.40;;;15.00;60.40;;;;;;2576447;52;20976;-75
2022/09/17 07:24:19;;;;;;;1.42;0.50;;;14.90;60.50;;;;;;2353188;52;20987;-75
2022/09/17 07:26:45;;;;;;;1.55;0.40;;;14.90;60.60;;;;;;2368870;52;21016;-74
2022/09/17 07:29:27;;;;;;;2.10;0.50;;;14.90;60.60;;;;;;2349465;53;21216;-76
2022/09/17 07:31:53;;;;;;;0.95;0.40;;;14.90;60.30;;;;;;2411525;52;20936;-75
2022/09/17 07:34:20;;;;;;;1.17;0.47;;;14.90;60.50;;;;;;2342053;53;21092;-75
2022/09/17 07:36:46;;;;;;;1.92;0.60;;;14.90;60.60;;;;;;2338148;53;20961;-75
2022/09/17 07:39:12;;;;;;;1.77;0.45;;;14.90;60.70;;;;;;2337887;52;20964;-75
2022/09/17 07:41:39;;;;;;;2.87;0.62;;;14.90;60.50;;;;;;2331554;53;21024;-75
2022/09/17 07:44:08;;;;;;;0.90;0.40;;;14.90;60.40;;;;;;2336011;52;20977;-75
2022/09/17 07:50:17;;;;;;;4.18;0.70;;;14.90;60.20;;;;;;2335229;53;21048;-75
2022/09/17 07:52:47;;;;;;;1.87;0.50;;;14.90;60.50;;;;;;2350987;53;21913;-75
2022/09/17 07:55:14;;;;;;;2.22;0.47;;;14.90;60.50;;;;;;2522803;52;21055;-76
2022/09/17 07:57:50;;;;;;;1.40;0.40;;;14.90;60.50;;;;;;2342465;53;21978;-75
2022/09/17 08:00:16;;;;;;;1.65;0.50;;;14.80;60.30;;;;;;2335899;53;21143;-74
2022/09/17 08:02:44;;;;;;;2.12;0.60;;;14.80;60.50;;;;;;2396398;52;21877;-74
2022/09/17 08:05:10;;;;;;;1.92;0.57;;;14.80;60.60;;;;;;2334779;53;21335;-76
2022/09/17 08:07:37;;;;;;;1.67;0.60;;;14.90;60.60;;;;;;2387928;52;20993;-75
2022/09/17 08:10:04;;;;;;;2.30;0.60;;;14.90;60.70;;;;;;2365365;52;22028;-76
2022/09/17 08:12:34;;;;;;;0.98;0.40;;;14.90;60.80;;;;;;2333853;53;20952;-76
2022/09/17 08:15:01;;;;;;;1.23;0.40;;;14.90;61.40;;;;;;2334411;53;21128;-75
2022/09/17 08:17:28;;;;;;;1.27;0.50;;;14.90;60.70;;;;;;2521178;52;21997;-76
2022/09/17 08:19:55;;;;;;;2.62;0.50;;;15.00;60.70;;;;;;2417247;52;20952;-76
2022/09/17 08:22:21;;;;;;;2.03;0.62;;;15.00;60.60;;;;;;2351237;53;20989;-75
2022/09/17 08:28:20;;;;;;;1.62;0.50;;;15.00;60.10;;;;;;2331606;53;21900;-75
2022/09/17 08:30:48;;;;;;;1.25;0.45;;;15.00;60.30;;;;;;2334164;53;21902;-74
2022/09/17 08:33:14;;;;;;;1.70;0.50;;;15.00;60.20;;;;;;2339424;52;21045;-75
2022/09/17 08:35:51;;;;;;;1.48;0.45;;;15.00;60.20;;;;;;2341211;53;20960;-75
2022/09/17 08:38:17;;;;;;;1.55;0.55;;;15.00;60.10;;;;;;2345626;53;20936;-75
2022/09/17 08:41:40;;;;;;;2.12;0.50;;;15.00;60.20;;;;;;2350773;53;20916;-76
2022/09/17 08:44:26;;;;;;;1.92;0.50;;;15.00;60.00;;;;;;2400334;52;21681;-75
2022/09/17 08:47:22;;;;;;;2.00;0.52;;;15.10;60.10;;;;;;2395422;52;20933;-75
2022/09/17 08:49:56;;;;;;;2.17;0.60;;;15.00;60.00;;;;;;2353678;53;20963;-75
2022/09/17 08:52:57;;;;;;;1.40;0.60;;;15.00;60.30;;;;;;2362199;52;20957;-74
2022/09/17 08:55:30;;;;;;;1.30;0.50;;;15.10;60.50;;;;;;2402532;52;21468;-75
2022/09/17 09:03:34;;;;;;;1.67;0.60;;;15.10;60.60;;;;;;2344445;53;21528;-75
2022/09/17 09:06:00;;;;;;;1.42;0.37;;;15.10;60.40;;;;;;2372510;52;20936;-75
2022/09/17 09:08:38;;;;;;;0.98;0.40;;;15.10;60.40;;;;;;2383576;52;20994;-75
2022/09/17 09:14:37;;;;;;;1.77;0.40;;;15.20;60.40;;;;;;2342386;53;21008;-76
2022/09/17 09:17:08;;;;;;;2.33;0.50;;;15.20;60.60;;;;;;2349837;53;21020;-75
2022/09/17 09:19:43;;;;;;;1.33;0.50;;;15.20;60.70;;;;;;2389128;52;21030;-76
2022/09/17 09:23:48;;;;;;;2.03;0.60;;;15.20;60.70;;;;;;2437379;52;21021;-76
2022/09/17 09:26:19;;;;;;;0.88;0.50;;;15.30;60.80;;;;;;2418960;52;21024;-75
2022/09/17 09:30:44;;;;;;;0.77;0.50;;;15.30;60.50;;;;;;2349280;53;20921;-74
2022/09/17 09:33:14;;;;;;;1.00;0.30;;;15.30;60.50;;;;;;2493109;52;20976;-75
2022/09/17 09:35:42;;;;;;;1.80;0.50;;;15.40;60.60;;;;;;2394846;52;21000;-75
2022/09/17 09:38:33;;;;;;;1.05;0.50;;;15.40;60.50;;;;;;2345865;53;21524;-75
2022/09/17 09:41:09;;;;;;;0.90;0.45;;;15.40;60.10;;;;;;2431813;52;20944;-75
2022/09/17 09:43:51;;;;;;;1.62;0.50;;;15.40;60.10;;;;;;2366160;53;21118;-75
2022/09/17 09:49:57;;;;;;;1.30;0.40;;;15.50;60.20;;;;;;2411254;52;20924;-75
2022/09/17 09:53:29;;;;;;;2.05;0.70;;;15.50;59.90;;;;;;2346536;53;20968;-75
2022/09/17 09:58:02;;;;;;;1.05;0.37;;;15.60;59.90;;;;;;2404449;52;20980;-75
2022/09/17 10:00:36;;;;;;;1.08;0.40;;;15.60;59.90;;;;;;2350706;53;20956;-74
2022/09/17 10:03:22;;;;;;;1.23;0.40;;;15.60;60.20;;;;;;2353913;52;20940;-75
2022/09/17 10:06:05;;;;;;;3.05;0.70;;;15.60;60.00;;;;;;2569496;52;20940;-76
2022/09/17 10:08:36;;;;;;;2.22;0.60;;;15.60;60.00;;;;;;2443982;52;20964;-76
2022/09/17 10:11:23;;;;;;;2.15;0.40;;;15.70;60.20;;;;;;2355982;53;21012;-75
2022/09/17 10:13:49;;;;;;;1.85;0.52;;;15.70;59.90;;;;;;2403295;52;20965;-74
2022/09/17 10:16:24;;;;;;;1.67;0.47;;;15.70;60.10;;;;;;2350668;53;20944;-76
2022/09/17 10:21:15;;;;;;;2.20;0.50;;;15.70;60.10;;;;;;2359714;53;20956;-76
2022/09/17 10:23:42;;;;;;;1.40;0.40;;;15.80;60.00;;;;;;2360353;53;21101;-75
2022/09/17 10:26:31;;;;;;;2.17;0.60;;;15.90;60.20;;;;;;2365669;52;20969;-75
2022/09/17 10:29:02;;;;;;;2.75;0.47;;;15.90;59.80;;;;;;2591126;52;20980;-75
2022/09/17 10:32:05;;;;;;;2.80;0.90;;;15.90;60.60;;;;;;2590519;52;20932;-75
2022/09/17 10:34:32;;;;;;;2.90;0.80;;;16.00;59.60;;;;;;2370205;53;20907;-76
2022/09/17 10:37:40;;;;;;;2.30;0.70;;;16.00;59.90;;;;;;2344300;53;20949;-75
2022/09/17 10:41:59;;;;;;;2.45;0.70;;;16.10;59.90;;;;;;2398815;52;20957;-75
2022/09/17 10:44:28;;;;;;;1.67;0.70;;;16.20;60.10;;;;;;2352384;52;20936;-76
2022/09/17 10:47:42;;;;;;;1.70;0.60;;;16.20;60.30;;;;;;2379754;52;21004;-75
2022/09/17 10:50:27;;;;;;;1.48;0.60;;;16.30;60.20;;;;;;2192128;53;9016898;-76
2022/09/17 10:52:58;;;;;;;1.62;0.70;;;16.40;60.30;;;;;;2323316;53;20954;-75
2022/09/17 10:55:44;;;;;;;2.03;0.70;;;16.40;60.30;;;;;;2317149;53;21006;-75
2022/09/17 10:58:35;;;;;;;1.20;0.60;;;16.50;60.00;;;;;;2410870;53;20987;-76
2022/09/17 11:01:44;;;;;;;1.35;0.47;;;16.50;59.90;;;;;;2474271;53;21053;-75
2022/09/17 11:04:50;;;;;;;1.50;0.70;;;16.60;59.60;;;;;;2318183;53;21489;-76
2022/09/17 11:14:20;;;;;;;0.98;0.47;;;16.70;59.60;;;;;;2472903;53;21005;-75
2022/09/17 11:17:40;;;;;;;1.35;0.60;;;16.70;59.60;;;;;;2317813;53;20967;-76
2022/09/17 11:21:47;;;;;;;1.95;0.68;;;16.80;59.70;;;;;;2429540;53;20947;-76
2022/09/17 11:27:30;;;;;;;1.67;0.65;;;16.80;59.80;;;;;;2316954;53;20963;-75
2022/09/17 11:30:20;;;;;;;0.93;0.43;;;16.90;60.30;;;;;;2320612;53;21023;-76
2022/09/17 11:33:23;;;;;;;1.25;0.50;;;16.90;59.80;;;;;;2320465;53;20924;-76
2022/09/17 11:43:03;;;;;;;1.60;0.62;;;17.00;59.70;;;;;;2316702;53;21531;-76
2022/09/17 11:45:35;;;;;;;2.00;0.60;;;17.00;59.60;;;;;;2320293;53;20947;-75
2022/09/17 11:48:17;;;;;;;2.28;0.80;;;17.10;59.80;;;;;;2374390;53;20946;-75
2022/09/17 11:51:05;;;;;;;2.22;0.62;;;17.10;59.80;;;;;;2324838;53;20975;-75
2022/09/17 11:53:46;;;;;;;2.40;0.70;;;17.10;59.90;;;;;;2394987;53;21008;-78
2022/09/17 11:56:28;;;;;;;1.65;0.60;;;17.20;60.00;;;;;;2323063;53;21039;-77
2022/09/17 11:59:05;;;;;;;1.42;0.55;;;17.20;59.90;;;;;;2383820;53;21728;-75
2022/09/17 12:01:39;;;;;;;1.62;0.50;;;17.30;60.10;;;;;;2317937;53;20978;-77
2022/09/17 12:04:46;;;;;;;1.40;0.52;;;17.40;60.20;;;;;;2319247;54;20943;-78
2022/09/17 12:07:18;;;;;;;1.87;0.70;;;17.40;59.80;;;;;;2317288;53;20950;-75
2022/09/17 12:09:49;;;;;;;1.83;0.77;;;17.50;60.30;;;;;;2316807;53;20987;-78
2022/09/17 12:12:17;;;;;;;2.65;0.70;;;17.60;60.40;;;;;;2320688;53;20947;-79
2022/09/17 12:15:06;;;;;;;2.85;0.85;;;17.60;60.00;;;;;;2386686;53;20987;-76
2022/09/17 12:17:48;;;;;;;1.85;0.60;;;17.70;59.80;;;;;;2345909;53;20963;-76
2022/09/17 12:20:32;;;;;;;1.40;0.60;;;17.80;59.80;;;;;;2459360;53;20947;-79
2022/09/17 12:23:02;;;;;;;1.42;0.52;;;17.80;59.60;;;;;;2315000;53;20919;-77
2022/09/17 12:25:31;;;;;;;3.15;0.62;;;17.90;59.60;;;;;;2354320;53;20935;-76
2022/09/17 12:28:02;;;;;;;1.40;0.60;;;17.90;60.10;;;;;;2379158;53;20999;-75
2022/09/17 12:30:33;;;;;;;1.60;0.60;;;18.00;59.60;;;;;;2317107;53;21054;-76
2022/09/17 12:34:27;;;;;;;2.22;0.60;;;18.00;59.40;;;;;;2515826;53;20959;-76
2022/09/17 12:39:04;;;;;;;1.98;0.60;;;18.10;59.10;;;;;;2318909;53;21055;-76
2022/09/17 12:43:47;;;;;;;2.40;0.90;;;18.10;58.70;;;;;;2344882;53;20911;-77
2022/09/17 12:47:54;;;;;;;1.50;0.55;;;18.20;58.70;;;;;;2334442;53;20955;-78
2022/09/17 12:53:33;;;;;;;2.03;0.62;;;18.20;58.90;;;;;;2323671;53;20990;-77
2022/09/17 12:56:48;;;;;;;3.03;1.05;;;18.30;58.70;;;;;;2523755;53;20944;-76
2022/09/17 12:59:18;;;;;;;1.70;0.55;;;18.30;58.00;;;;;;2325530;53;20927;-76
2022/09/17 13:12:15;;;;;;;1.33;0.52;;;18.30;58.50;;;;;;2347241;53;20994;-76
2022/09/17 13:15:18;;;;;;;1.42;0.50;;;18.30;58.40;;;;;;2317749;53;21404;-77
2022/09/17 13:23:37;;;;;;;0.95;0.40;;;18.40;58.00;;;;;;2362629;53;21054;-76
2022/09/17 13:26:04;;;;;;;1.77;0.50;;;18.40;58.10;;;;;;2342427;53;21077;-75
2022/09/17 13:28:46;;;;;;;1.37;0.47;;;18.40;58.40;;;;;;2315188;53;20911;-77
2022/09/17 13:31:25;;;;;;;2.15;0.50;;;18.40;58.10;;;;;;2467409;53;20986;-77
2022/09/17 13:33:56;;;;;;;1.05;0.40;;;18.50;58.00;;;;;;2454548;53;20995;-77
2022/09/17 13:37:15;;;;;;;5.32;0.80;;;18.50;58.20;;;;;;2399843;53;20982;-77
2022/09/17 13:39:49;;;;;;;2.40;0.62;;;18.50;57.60;;;;;;2411748;53;21002;-77
2022/09/17 13:42:37;;;;;;;3.10;0.73;;;18.60;57.90;;;;;;2319857;53;21650;-77
2022/09/17 13:45:09;;;;;;;2.37;0.70;;;18.60;57.50;;;;;;2329058;53;20965;-77
2022/09/17 13:47:58;;;;;;;4.93;0.93;;;18.60;57.60;;;;;;2323706;53;20935;-77
2022/09/17 13:50:39;;;;;;;3.28;0.80;;;18.70;57.10;;;;;;2410550;53;20967;-77
2022/09/17 13:53:20;;;;;;;3.85;0.65;;;18.70;57.40;;;;;;2369542;53;20974;-77
2022/09/17 13:56:03;;;;;;;;;;;18.80;57.10;;;;;;2363509;53;20980;-75
2022/09/17 13:58:30;;;;;;;2.22;0.55;;;18.90;57.30;;;;;;2317067;53;20074;-76
2022/09/17 14:01:12;;;;;;;2.33;0.80;;;19.00;57.80;;;;;;2317451;53;20994;-78
2022/09/17 14:03:56;;;;;;;2.08;0.57;;;19.00;57.20;;;;;;2317233;53;20999;-78
2022/09/17 14:13:54;;;;;;;1.45;0.40;;;19.00;56.40;;;;;;2344384;53;20954;-77
2022/09/17 14:16:35;;;;;;;1.15;0.35;;;19.10;56.10;;;;;;2367223;53;21825;-77
2022/09/17 14:20:32;;;;;;;3.05;0.50;;;19.20;56.00;;;;;;2468920;53;20951;-77
2022/09/17 14:22:59;;;;;;;1.52;0.50;;;19.20;56.00;;;;;;2438682;53;21475;-78
2022/09/17 14:25:33;;;;;;;0.93;0.35;;;19.10;56.20;;;;;;2331723;53;21374;-77
2022/09/17 14:28:02;;;;;;;0.90;0.40;;;19.00;56.30;;;;;;2351312;53;21074;-78
2022/09/17 14:30:32;;;;;;;2.95;0.70;;;19.00;56.60;;;;;;2333676;53;20950;-76
2022/09/17 14:33:17;;;;;;;1.67;0.50;;;19.00;56.80;;;;;;2319071;53;21298;-77
2022/09/17 14:35:45;;;;;;;1.30;0.43;;;18.90;56.30;;;;;;2465208;53;21000;-76
2022/09/17 14:41:39;;;;;;;2.08;0.70;;;18.80;56.10;;;;;;2317021;53;20995;-77
2022/09/17 14:44:19;;;;;;;1.30;0.40;;;18.80;56.50;;;;;;2317128;53;21487;-77
2022/09/17 14:47:07;;;;;;;2.05;0.60;;;18.80;56.40;;;;;;2324931;53;21063;-77
2022/09/17 14:49:34;;;;;;;2.85;0.88;;;18.80;55.80;;;;;;2438751;53;20970;-77
2022/09/17 14:52:00;;;;;;;2.05;0.60;;;18.80;56.30;;;;;;2340225;53;21018;-77
2022/09/17 14:54:30;;;;;;;2.35;0.60;;;18.80;56.30;;;;;;2396854;53;20992;-78
2022/09/17 14:57:25;;;;;;;2.37;0.60;;;18.80;56.20;;;;;;2342931;53;21018;-78
2022/09/17 14:59:55;;;;;;;1.65;0.50;;;18.70;56.00;;;;;;2505825;53;20943;-76
2022/09/17 15:02:40;;;;;;;2.90;0.65;;;18.70;56.00;;;;;;2322977;53;21396;-77
2022/09/17 15:05:27;;;;;;;1.90;0.37;;;18.70;55.70;;;;;;2332373;53;20986;-77
2022/09/17 15:08:20;;;;;;;2.25;0.62;;;18.70;56.00;;;;;;2371069;53;21475;-78
2022/09/17 15:11:02;;;;;;;1.52;0.40;;;18.70;55.60;;;;;;2372009;53;21006;-79
2022/09/17 15:13:34;;;;;;;1.60;0.60;;;18.70;55.70;;;;;;2366198;53;21472;-77
2022/09/17 15:16:18;;;;;;;2.08;0.60;;;18.70;55.80;;;;;;2406794;53;21409;-77
2022/09/17 15:18:52;;;;;;;1.90;0.47;;;18.70;56.20;;;;;;2350890;53;20912;-77
2022/09/17 15:21:52;;;;;;;1.58;0.40;;;18.80;56.10;;;;;;2481820;53;20939;-76
2022/09/17 15:25:04;;;;;;;0.88;0.30;;;18.80;55.50;;;;;;2317092;53;20911;-76
2022/09/17 15:27:38;;;;;;;1.35;0.50;;;18.80;55.70;;;;;;2561612;53;21004;-78
2022/09/17 15:30:13;;;;;;;2.50;0.47;;;18.80;55.80;;;;;;2353254;53;20924;-76
2022/09/17 15:33:41;;;;;;;1.58;0.50;;;18.80;55.50;;;;;;2432371;53;21023;-77
2022/09/17 15:36:30;;;;;;;1.58;0.68;;;18.80;55.70;;;;;;2325470;53;21430;-79
2022/09/17 15:38:57;;;;;;;3.33;0.80;;;18.80;55.00;;;;;;2352865;53;20955;-76
2022/09/17 15:41:42;;;;;;;2.85;0.68;;;18.80;55.60;;;;;;2380952;53;20938;-77
2022/09/17 15:44:22;;;;;;;3.22;0.50;;;18.80;55.40;;;;;;2442164;53;21502;-77
2022/09/17 15:46:58;;;;;;;2.62;0.62;;;18.80;55.10;;;;;;2342267;53;21041;-78
2022/09/17 15:49:34;;;;;;;1.92;0.60;;;18.80;55.40;;;;;;2337351;53;21263;-78
2022/09/17 15:52:31;;;;;;;3.90;0.77;;;18.70;55.00;;;;;;2360204;53;21127;-77
2022/09/17 15:54:58;;;;;;;3.97;0.80;;;18.70;55.00;;;;;;2342947;53;21029;-76